Addington, Oklahoma
Current Conditions -  °F | °C
As of 3:55 PM on Monday 20 Oct 2014 (Local Time) from KDUC Reporting Station
Clear Clear  
Wind Chill: 82°   Ceiling: Unl
Heat Index: 83°   Visibility: 10mi
Dew Point: 61°   Wind: 0mph
Humidity: 48%   Direction: NA
Pressure: 30.01"   Gusts: NA
Location:  34.24°N, 97.97°W
Report Text: KDUC 202055Z AUTO 00000KT 10SM CLR 28/16 A3001 RMK AO2
Loading
Personal Weather Stations






























Interactive Weather Map
Tropical Storm Tracking
New forecast layout! Learn more

10-Day Weather Forecast

Advertisements
Track Severe Weather on mobile